sensor_id;sensor_type;location;lat;lon;timestamp;P1;durP1;ratioP1;P2;durP2;ratioP2
13048;SDS011;6591;51.446;5.404;2022-08-02T00:00:41;2.97;;;1.30;;
13048;SDS011;6591;51.446;5.404;2022-08-02T00:03:08;3.55;;;1.50;;
13048;SDS011;6591;51.446;5.404;2022-08-02T00:05:36;1.67;;;1.20;;
13048;SDS011;6591;51.446;5.404;2022-08-02T00:08:05;1.20;;;0.90;;
13048;SDS011;6591;51.446;5.404;2022-08-02T00:10:33;1.77;;;0.82;;
13048;SDS011;6591;51.446;5.404;2022-08-02T00:13:00;2.72;;;1.35;;
13048;SDS011;6591;51.446;5.404;2022-08-02T00:15:27;1.55;;;1.15;;
13048;SDS011;6591;51.446;5.404;2022-08-02T00:17:54;1.23;;;1.00;;
13048;SDS011;6591;51.446;5.404;2022-08-02T00:20:22;2.95;;;1.17;;
13048;SDS011;6591;51.446;5.404;2022-08-02T00:22:49;1.33;;;0.90;;
13048;SDS011;6591;51.446;5.404;2022-08-02T00:25:19;2.00;;;1.30;;
13048;SDS011;6591;51.446;5.404;2022-08-02T00:27:46;3.58;;;1.05;;
13048;SDS011;6591;51.446;5.404;2022-08-02T00:30:13;2.55;;;1.30;;
13048;SDS011;6591;51.446;5.404;2022-08-02T00:32:41;1.58;;;1.30;;
13048;SDS011;6591;51.446;5.404;2022-08-02T00:35:08;1.42;;;1.10;;
13048;SDS011;6591;51.446;5.404;2022-08-02T00:37:39;1.58;;;1.30;;
13048;SDS011;6591;51.446;5.404;2022-08-02T00:40:07;2.55;;;1.25;;
13048;SDS011;6591;51.446;5.404;2022-08-02T00:42:37;1.55;;;1.30;;
13048;SDS011;6591;51.446;5.404;2022-08-02T00:45:05;2.15;;;1.25;;
13048;SDS011;6591;51.446;5.404;2022-08-02T00:47:34;2.50;;;1.35;;
13048;SDS011;6591;51.446;5.404;2022-08-02T00:50:01;2.38;;;1.20;;
13048;SDS011;6591;51.446;5.404;2022-08-02T00:52:29;1.80;;;1.10;;
13048;SDS011;6591;51.446;5.404;2022-08-02T00:54:56;2.72;;;1.30;;
13048;SDS011;6591;51.446;5.404;2022-08-02T00:57:24;1.45;;;1.20;;
13048;SDS011;6591;51.446;5.404;2022-08-02T00:59:55;2.90;;;1.25;;
13048;SDS011;6591;51.446;5.404;2022-08-02T01:02:22;2.53;;;1.20;;
13048;SDS011;6591;51.446;5.404;2022-08-02T01:04:49;1.77;;;1.10;;
13048;SDS011;6591;51.446;5.404;2022-08-02T01:07:16;1.58;;;1.35;;
13048;SDS011;6591;51.446;5.404;2022-08-02T01:09:44;2.47;;;1.20;;
13048;SDS011;6591;51.446;5.404;2022-08-02T01:12:11;1.45;;;1.30;;
13048;SDS011;6591;51.446;5.404;2022-08-02T01:14:40;1.75;;;1.30;;
13048;SDS011;6591;51.446;5.404;2022-08-02T01:26:08;3.05;;;1.40;;
13048;SDS011;6591;51.446;5.404;2022-08-02T01:29:19;2.65;;;1.40;;
13048;SDS011;6591;51.446;5.404;2022-08-02T01:34:53;2.78;;;1.50;;
13048;SDS011;6591;51.446;5.404;2022-08-02T01:37:34;2.80;;;1.55;;
13048;SDS011;6591;51.446;5.404;2022-08-02T01:40:16;2.60;;;1.40;;
13048;SDS011;6591;51.446;5.404;2022-08-02T01:42:57;3.05;;;1.70;;
13048;SDS011;6591;51.446;5.404;2022-08-02T01:45:28;2.35;;;1.42;;
13048;SDS011;6591;51.446;5.404;2022-08-02T01:48:01;3.00;;;1.40;;
13048;SDS011;6591;51.446;5.404;2022-08-02T01:50:31;2.33;;;1.60;;
13048;SDS011;6591;51.446;5.404;2022-08-02T01:53:06;1.90;;;1.50;;
13048;SDS011;6591;51.446;5.404;2022-08-02T01:55:39;2.17;;;1.60;;
13048;SDS011;6591;51.446;5.404;2022-08-02T01:58:25;2.55;;;1.48;;
13048;SDS011;6591;51.446;5.404;2022-08-02T02:00:58;3.80;;;1.50;;
13048;SDS011;6591;51.446;5.404;2022-08-02T02:03:29;2.38;;;1.35;;
13048;SDS011;6591;51.446;5.404;2022-08-02T02:05:59;3.00;;;1.58;;
13048;SDS011;6591;51.446;5.404;2022-08-02T02:08:33;2.28;;;1.45;;
13048;SDS011;6591;51.446;5.404;2022-08-02T02:11:05;2.97;;;1.55;;
13048;SDS011;6591;51.446;5.404;2022-08-02T02:13:55;3.58;;;1.33;;
13048;SDS011;6591;51.446;5.404;2022-08-02T02:16:27;3.58;;;1.70;;
13048;SDS011;6591;51.446;5.404;2022-08-02T02:18:54;2.53;;;1.60;;
13048;SDS011;6591;51.446;5.404;2022-08-02T02:21:21;4.70;;;2.00;;
13048;SDS011;6591;51.446;5.404;2022-08-02T02:23:48;2.50;;;1.85;;
13048;SDS011;6591;51.446;5.404;2022-08-02T02:26:16;2.28;;;1.67;;
13048;SDS011;6591;51.446;5.404;2022-08-02T02:29:01;2.80;;;1.75;;
13048;SDS011;6591;51.446;5.404;2022-08-02T02:31:31;3.63;;;1.70;;
13048;SDS011;6591;51.446;5.404;2022-08-02T02:34:03;2.80;;;2.00;;
13048;SDS011;6591;51.446;5.404;2022-08-02T02:36:40;2.20;;;1.70;;
13048;SDS011;6591;51.446;5.404;2022-08-02T02:39:15;2.83;;;1.85;;
13048;SDS011;6591;51.446;5.404;2022-08-02T02:41:48;3.00;;;1.85;;
13048;SDS011;6591;51.446;5.404;2022-08-02T02:44:24;3.85;;;2.10;;
13048;SDS011;6591;51.446;5.404;2022-08-02T02:46:54;4.97;;;2.22;;
13048;SDS011;6591;51.446;5.404;2022-08-02T02:49:23;3.15;;;2.00;;
13048;SDS011;6591;51.446;5.404;2022-08-02T02:51:53;10.65;;;2.28;;
13048;SDS011;6591;51.446;5.404;2022-08-02T02:54:22;2.75;;;1.88;;
13048;SDS011;6591;51.446;5.404;2022-08-02T02:57:00;2.25;;;1.90;;
13048;SDS011;6591;51.446;5.404;2022-08-02T02:59:31;2.53;;;1.73;;
13048;SDS011;6591;51.446;5.404;2022-08-02T03:02:00;2.83;;;1.90;;
13048;SDS011;6591;51.446;5.404;2022-08-02T03:04:29;4.55;;;2.20;;
13048;SDS011;6591;51.446;5.404;2022-08-02T03:07:18;2.83;;;2.08;;
13048;SDS011;6591;51.446;5.404;2022-08-02T03:09:51;3.28;;;1.85;;
13048;SDS011;6591;51.446;5.404;2022-08-02T03:12:21;3.40;;;1.95;;
13048;SDS011;6591;51.446;5.404;2022-08-02T03:14:56;3.00;;;1.98;;
13048;SDS011;6591;51.446;5.404;2022-08-02T03:17:51;2.75;;;1.83;;
13048;SDS011;6591;51.446;5.404;2022-08-02T03:20:19;2.55;;;2.10;;
13048;SDS011;6591;51.446;5.404;2022-08-02T03:22:48;2.15;;;1.70;;
13048;SDS011;6591;51.446;5.404;2022-08-02T03:25:16;2.60;;;2.03;;
13048;SDS011;6591;51.446;5.404;2022-08-02T03:27:43;3.03;;;2.22;;
13048;SDS011;6591;51.446;5.404;2022-08-02T03:30:11;2.80;;;2.30;;
13048;SDS011;6591;51.446;5.404;2022-08-02T03:32:40;2.97;;;2.30;;
13048;SDS011;6591;51.446;5.404;2022-08-02T03:35:12;6.88;;;3.00;;
13048;SDS011;6591;51.446;5.404;2022-08-02T03:37:49;3.85;;;2.40;;
13048;SDS011;6591;51.446;5.404;2022-08-02T03:40:24;2.72;;;2.20;;
13048;SDS011;6591;51.446;5.404;2022-08-02T03:42:53;3.50;;;2.45;;
13048;SDS011;6591;51.446;5.404;2022-08-02T03:45:20;4.25;;;2.80;;
13048;SDS011;6591;51.446;5.404;2022-08-02T03:48:01;3.90;;;2.60;;
13048;SDS011;6591;51.446;5.404;2022-08-02T03:50:51;2.53;;;2.30;;
13048;SDS011;6591;51.446;5.404;2022-08-02T03:53:20;3.83;;;2.17;;
13048;SDS011;6591;51.446;5.404;2022-08-02T03:55:49;5.03;;;2.65;;
13048;SDS011;6591;51.446;5.404;2022-08-02T03:58:20;3.97;;;2.53;;
13048;SDS011;6591;51.446;5.404;2022-08-02T04:00:50;2.95;;;2.45;;
13048;SDS011;6591;51.446;5.404;2022-08-02T04:03:20;2.80;;;2.35;;
13048;SDS011;6591;51.446;5.404;2022-08-02T04:05:47;4.45;;;2.33;;
13048;SDS011;6591;51.446;5.404;2022-08-02T04:08:31;2.35;;;2.13;;
13048;SDS011;6591;51.446;5.404;2022-08-02T04:11:04;2.58;;;2.00;;
13048;SDS011;6591;51.446;5.404;2022-08-02T04:13:52;3.35;;;2.03;;
13048;SDS011;6591;51.446;5.404;2022-08-02T04:16:33;3.05;;;2.40;;
13048;SDS011;6591;51.446;5.404;2022-08-02T04:19:36;3.47;;;2.47;;
13048;SDS011;6591;51.446;5.404;2022-08-02T04:22:13;4.63;;;2.60;;
13048;SDS011;6591;51.446;5.404;2022-08-02T04:24:48;3.78;;;2.30;;
13048;SDS011;6591;51.446;5.404;2022-08-02T04:27:22;3.00;;;2.50;;
13048;SDS011;6591;51.446;5.404;2022-08-02T04:30:11;4.07;;;2.90;;
13048;SDS011;6591;51.446;5.404;2022-08-02T04:32:39;3.28;;;2.30;;
13048;SDS011;6591;51.446;5.404;2022-08-02T04:35:06;4.40;;;2.33;;
13048;SDS011;6591;51.446;5.404;2022-08-02T04:37:45;5.90;;;2.80;;
13048;SDS011;6591;51.446;5.404;2022-08-02T04:40:33;4.30;;;2.92;;
13048;SDS011;6591;51.446;5.404;2022-08-02T04:43:00;6.43;;;2.88;;
13048;SDS011;6591;51.446;5.404;2022-08-02T04:45:30;4.45;;;2.88;;
13048;SDS011;6591;51.446;5.404;2022-08-02T04:48:23;2.97;;;2.67;;
13048;SDS011;6591;51.446;5.404;2022-08-02T04:50:58;3.33;;;2.65;;
13048;SDS011;6591;51.446;5.404;2022-08-02T04:53:25;5.57;;;3.00;;
13048;SDS011;6591;51.446;5.404;2022-08-02T04:55:52;4.80;;;2.63;;
13048;SDS011;6591;51.446;5.404;2022-08-02T04:58:19;4.15;;;2.80;;
13048;SDS011;6591;51.446;5.404;2022-08-02T05:01:07;5.22;;;3.10;;
13048;SDS011;6591;51.446;5.404;2022-08-02T05:03:34;3.88;;;2.88;;
13048;SDS011;6591;51.446;5.404;2022-08-02T05:06:01;3.95;;;3.10;;
13048;SDS011;6591;51.446;5.404;2022-08-02T05:08:44;3.50;;;3.13;;
13048;SDS011;6591;51.446;5.404;2022-08-02T05:11:18;3.70;;;2.60;;
13048;SDS011;6591;51.446;5.404;2022-08-02T05:14:02;3.38;;;2.63;;
13048;SDS011;6591;51.446;5.404;2022-08-02T05:16:34;4.63;;;2.97;;
13048;SDS011;6591;51.446;5.404;2022-08-02T05:19:00;4.28;;;3.38;;
13048;SDS011;6591;51.446;5.404;2022-08-02T05:21:29;4.85;;;3.53;;
13048;SDS011;6591;51.446;5.404;2022-08-02T05:23:57;4.18;;;2.80;;
13048;SDS011;6591;51.446;5.404;2022-08-02T05:26:25;4.13;;;3.00;;
13048;SDS011;6591;51.446;5.404;2022-08-02T05:28:51;3.90;;;3.50;;
13048;SDS011;6591;51.446;5.404;2022-08-02T05:31:19;4.22;;;3.25;;
13048;SDS011;6591;51.446;5.404;2022-08-02T05:33:46;4.45;;;3.35;;
13048;SDS011;6591;51.446;5.404;2022-08-02T05:36:14;6.63;;;3.00;;
13048;SDS011;6591;51.446;5.404;2022-08-02T05:38:42;5.07;;;3.28;;
13048;SDS011;6591;51.446;5.404;2022-08-02T05:41:16;4.15;;;3.58;;
13048;SDS011;6591;51.446;5.404;2022-08-02T05:43:44;5.50;;;3.78;;
13048;SDS011;6591;51.446;5.404;2022-08-02T05:46:12;6.57;;;3.78;;
13048;SDS011;6591;51.446;5.404;2022-08-02T05:48:39;7.20;;;3.67;;
13048;SDS011;6591;51.446;5.404;2022-08-02T05:51:10;4.95;;;4.00;;
13048;SDS011;6591;51.446;5.404;2022-08-02T05:53:50;6.63;;;3.85;;
13048;SDS011;6591;51.446;5.404;2022-08-02T05:57:00;4.32;;;3.50;;
13048;SDS011;6591;51.446;5.404;2022-08-02T06:05:33;8.20;;;3.35;;
13048;SDS011;6591;51.446;5.404;2022-08-02T06:08:06;4.75;;;3.30;;
13048;SDS011;6591;51.446;5.404;2022-08-02T06:10:36;5.70;;;4.05;;
13048;SDS011;6591;51.446;5.404;2022-08-02T06:15:41;5.60;;;3.85;;
13048;SDS011;6591;51.446;5.404;2022-08-02T06:18:19;4.05;;;3.10;;
13048;SDS011;6591;51.446;5.404;2022-08-02T06:20:57;3.70;;;3.15;;
13048;SDS011;6591;51.446;5.404;2022-08-02T06:23:51;4.65;;;3.35;;
13048;SDS011;6591;51.446;5.404;2022-08-02T06:26:25;3.42;;;3.13;;
13048;SDS011;6591;51.446;5.404;2022-08-02T06:28:55;4.47;;;3.53;;
13048;SDS011;6591;51.446;5.404;2022-08-02T06:31:24;5.28;;;3.88;;
13048;SDS011;6591;51.446;5.404;2022-08-02T06:33:51;5.65;;;3.70;;
13048;SDS011;6591;51.446;5.404;2022-08-02T06:36:36;4.10;;;3.63;;
13048;SDS011;6591;51.446;5.404;2022-08-02T06:39:21;3.65;;;2.72;;
13048;SDS011;6591;51.446;5.404;2022-08-02T06:42:13;3.78;;;3.35;;
13048;SDS011;6591;51.446;5.404;2022-08-02T06:44:54;4.55;;;3.70;;
13048;SDS011;6591;51.446;5.404;2022-08-02T06:47:23;5.10;;;3.55;;
13048;SDS011;6591;51.446;5.404;2022-08-02T06:49:51;5.00;;;3.53;;
13048;SDS011;6591;51.446;5.404;2022-08-02T06:52:26;4.07;;;3.60;;
13048;SDS011;6591;51.446;5.404;2022-08-02T06:55:00;5.13;;;3.92;;
13048;SDS011;6591;51.446;5.404;2022-08-02T06:57:30;7.82;;;4.68;;
13048;SDS011;6591;51.446;5.404;2022-08-02T06:59:58;5.88;;;3.97;;
13048;SDS011;6591;51.446;5.404;2022-08-02T07:02:33;5.38;;;4.35;;
13048;SDS011;6591;51.446;5.404;2022-08-02T07:05:02;5.57;;;4.80;;
13048;SDS011;6591;51.446;5.404;2022-08-02T07:07:29;6.25;;;4.60;;
13048;SDS011;6591;51.446;5.404;2022-08-02T07:09:57;6.45;;;5.00;;
13048;SDS011;6591;51.446;5.404;2022-08-02T07:12:29;7.32;;;4.35;;
13048;SDS011;6591;51.446;5.404;2022-08-02T07:14:58;7.68;;;4.43;;
13048;SDS011;6591;51.446;5.404;2022-08-02T07:17:29;7.20;;;4.30;;
13048;SDS011;6591;51.446;5.404;2022-08-02T07:19:56;5.97;;;4.15;;
13048;SDS011;6591;51.446;5.404;2022-08-02T07:22:24;5.13;;;4.32;;
13048;SDS011;6591;51.446;5.404;2022-08-02T07:24:54;7.55;;;4.72;;
13048;SDS011;6591;51.446;5.404;2022-08-02T07:27:24;5.95;;;3.88;;
13048;SDS011;6591;51.446;5.404;2022-08-02T07:29:53;5.22;;;3.90;;
13048;SDS011;6591;51.446;5.404;2022-08-02T07:32:22;6.55;;;4.07;;
13048;SDS011;6591;51.446;5.404;2022-08-02T07:34:53;4.60;;;3.50;;
13048;SDS011;6591;51.446;5.404;2022-08-02T07:37:26;5.35;;;3.47;;
13048;SDS011;6591;51.446;5.404;2022-08-02T07:40:17;3.67;;;2.90;;
13048;SDS011;6591;51.446;5.404;2022-08-02T07:42:46;3.45;;;2.83;;
13048;SDS011;6591;51.446;5.404;2022-08-02T07:45:18;3.03;;;2.67;;
13048;SDS011;6591;51.446;5.404;2022-08-02T07:47:50;2.97;;;2.40;;
13048;SDS011;6591;51.446;5.404;2022-08-02T07:50:18;3.58;;;2.40;;
13048;SDS011;6591;51.446;5.404;2022-08-02T07:52:46;3.78;;;2.70;;
13048;SDS011;6591;51.446;5.404;2022-08-02T07:55:15;3.08;;;2.05;;
13048;SDS011;6591;51.446;5.404;2022-08-02T07:57:47;2.97;;;2.10;;
13048;SDS011;6591;51.446;5.404;2022-08-02T08:00:18;4.55;;;1.98;;
13048;SDS011;6591;51.446;5.404;2022-08-02T08:02:47;4.50;;;2.22;;
13048;SDS011;6591;51.446;5.404;2022-08-02T08:05:15;8.30;;;1.98;;
13048;SDS011;6591;51.446;5.404;2022-08-02T08:07:46;1.77;;;1.67;;
13048;SDS011;6591;51.446;5.404;2022-08-02T08:10:13;1.67;;;1.58;;
13048;SDS011;6591;51.446;5.404;2022-08-02T08:12:40;2.30;;;1.50;;
13048;SDS011;6591;51.446;5.404;2022-08-02T08:15:07;1.48;;;1.38;;
13048;SDS011;6591;51.446;5.404;2022-08-02T08:17:36;2.17;;;1.40;;
13048;SDS011;6591;51.446;5.404;2022-08-02T08:20:04;1.33;;;1.20;;
13048;SDS011;6591;51.446;5.404;2022-08-02T08:22:31;1.92;;;1.50;;
13048;SDS011;6591;51.446;5.404;2022-08-02T08:24:58;1.95;;;1.45;;
13048;SDS011;6591;51.446;5.404;2022-08-02T08:27:26;1.60;;;1.33;;
13048;SDS011;6591;51.446;5.404;2022-08-02T08:29:53;2.03;;;1.50;;
13048;SDS011;6591;51.446;5.404;2022-08-02T08:33:11;2.65;;;1.25;;
13048;SDS011;6591;51.446;5.404;2022-08-02T08:35:39;3.15;;;1.83;;
13048;SDS011;6591;51.446;5.404;2022-08-02T08:38:06;3.50;;;1.60;;
13048;SDS011;6591;51.446;5.404;2022-08-02T08:40:33;1.77;;;1.50;;
13048;SDS011;6591;51.446;5.404;2022-08-02T08:43:02;1.80;;;1.42;;
13048;SDS011;6591;51.446;5.404;2022-08-02T08:45:31;1.65;;;1.55;;
13048;SDS011;6591;51.446;5.404;2022-08-02T08:47:59;3.00;;;1.63;;
13048;SDS011;6591;51.446;5.404;2022-08-02T08:50:34;3.28;;;1.33;;
13048;SDS011;6591;51.446;5.404;2022-08-02T08:53:05;3.30;;;1.73;;
13048;SDS011;6591;51.446;5.404;2022-08-02T08:55:39;2.70;;;1.60;;
13048;SDS011;6591;51.446;5.404;2022-08-02T08:58:06;1.90;;;1.67;;
13048;SDS011;6591;51.446;5.404;2022-08-02T09:00:34;3.30;;;1.60;;
13048;SDS011;6591;51.446;5.404;2022-08-02T09:03:05;2.10;;;1.67;;
13048;SDS011;6591;51.446;5.404;2022-08-02T09:05:34;1.92;;;1.77;;
13048;SDS011;6591;51.446;5.404;2022-08-02T09:08:03;1.77;;;1.50;;
13048;SDS011;6591;51.446;5.404;2022-08-02T09:10:41;1.75;;;1.20;;
13048;SDS011;6591;51.446;5.404;2022-08-02T09:16:11;1.45;;;1.35;;
13048;SDS011;6591;51.446;5.404;2022-08-02T09:18:42;3.30;;;1.52;;
13048;SDS011;6591;51.446;5.404;2022-08-02T09:21:15;2.75;;;1.30;;
13048;SDS011;6591;51.446;5.404;2022-08-02T09:23:46;2.17;;;1.40;;
13048;SDS011;6591;51.446;5.404;2022-08-02T09:26:17;1.73;;;1.50;;
13048;SDS011;6591;51.446;5.404;2022-08-02T09:28:50;1.73;;;1.30;;
13048;SDS011;6591;51.446;5.404;2022-08-02T09:31:24;2.63;;;1.42;;
13048;SDS011;6591;51.446;5.404;2022-08-02T09:33:56;1.65;;;1.40;;
13048;SDS011;6591;51.446;5.404;2022-08-02T09:36:25;1.50;;;1.40;;
13048;SDS011;6591;51.446;5.404;2022-08-02T09:39:05;3.17;;;1.60;;
13048;SDS011;6591;51.446;5.404;2022-08-02T09:41:37;3.17;;;1.40;;
13048;SDS011;6591;51.446;5.404;2022-08-02T09:44:09;2.03;;;1.20;;
13048;SDS011;6591;51.446;5.404;2022-08-02T09:46:42;1.85;;;1.27;;
13048;SDS011;6591;51.446;5.404;2022-08-02T09:49:12;1.80;;;1.27;;
13048;SDS011;6591;51.446;5.404;2022-08-02T09:54:20;2.10;;;1.42;;
13048;SDS011;6591;51.446;5.404;2022-08-02T09:56:55;2.65;;;1.40;;
13048;SDS011;6591;51.446;5.404;2022-08-02T09:59:25;4.43;;;1.48;;
13048;SDS011;6591;51.446;5.404;2022-08-02T10:01:54;2.25;;;1.42;;
13048;SDS011;6591;51.446;5.404;2022-08-02T10:04:28;1.45;;;1.35;;
13048;SDS011;6591;51.446;5.404;2022-08-02T10:07:17;1.45;;;1.20;;
13048;SDS011;6591;51.446;5.404;2022-08-02T10:09:47;1.30;;;1.20;;
13048;SDS011;6591;51.446;5.404;2022-08-02T10:12:14;2.22;;;1.20;;
13048;SDS011;6591;51.446;5.404;2022-08-02T10:14:41;1.40;;;1.30;;
13048;SDS011;6591;51.446;5.404;2022-08-02T10:17:10;2.88;;;1.60;;
13048;SDS011;6591;51.446;5.404;2022-08-02T10:19:37;3.88;;;1.17;;
13048;SDS011;6591;51.446;5.404;2022-08-02T10:22:25;2.45;;;1.33;;
13048;SDS011;6591;51.446;5.404;2022-08-02T10:24:53;2.70;;;1.20;;
13048;SDS011;6591;51.446;5.404;2022-08-02T10:27:20;1.10;;;1.00;;
13048;SDS011;6591;51.446;5.404;2022-08-02T10:29:51;2.65;;;1.20;;
13048;SDS011;6591;51.446;5.404;2022-08-02T10:32:25;1.48;;;1.10;;
13048;SDS011;6591;51.446;5.404;2022-08-02T10:35:03;1.48;;;1.10;;
13048;SDS011;6591;51.446;5.404;2022-08-02T10:37:54;1.70;;;1.20;;
13048;SDS011;6591;51.446;5.404;2022-08-02T10:40:47;2.85;;;1.10;;
13048;SDS011;6591;51.446;5.404;2022-08-02T10:54:37;1.77;;;1.40;;
13048;SDS011;6591;51.446;5.404;2022-08-02T10:57:13;1.30;;;1.10;;
13048;SDS011;6591;51.446;5.404;2022-08-02T10:59:48;1.42;;;1.25;;
13048;SDS011;6591;51.446;5.404;2022-08-02T11:02:43;3.28;;;1.05;;
13048;SDS011;6591;51.446;5.404;2022-08-02T11:08:18;0.90;;;0.85;;
13048;SDS011;6591;51.446;5.404;2022-08-02T11:10:47;3.40;;;1.63;;
13048;SDS011;6591;51.446;5.404;2022-08-02T11:13:15;2.10;;;1.20;;
13048;SDS011;6591;51.446;5.404;2022-08-02T11:15:49;1.10;;;1.00;;
13048;SDS011;6591;51.446;5.404;2022-08-02T11:18:20;1.50;;;1.13;;
13048;SDS011;6591;51.446;5.404;2022-08-02T11:21:28;2.35;;;1.20;;
13048;SDS011;6591;51.446;5.404;2022-08-02T11:26:53;1.35;;;1.20;;
13048;SDS011;6591;51.446;5.404;2022-08-02T11:29:21;1.98;;;1.10;;
13048;SDS011;6591;51.446;5.404;2022-08-02T11:32:04;2.20;;;1.27;;
13048;SDS011;6591;51.446;5.404;2022-08-02T11:34:33;2.33;;;1.50;;
13048;SDS011;6591;51.446;5.404;2022-08-02T11:37:03;1.20;;;1.10;;
13048;SDS011;6591;51.446;5.404;2022-08-02T11:39:30;1.63;;;1.30;;
13048;SDS011;6591;51.446;5.404;2022-08-02T11:41:58;2.47;;;1.10;;
13048;SDS011;6591;51.446;5.404;2022-08-02T11:44:27;1.98;;;1.10;;
13048;SDS011;6591;51.446;5.404;2022-08-02T11:47:04;1.17;;;1.08;;
13048;SDS011;6591;51.446;5.404;2022-08-02T11:49:32;1.90;;;1.50;;
13048;SDS011;6591;51.446;5.404;2022-08-02T11:52:00;1.90;;;1.40;;
13048;SDS011;6591;51.446;5.404;2022-08-02T11:54:32;1.75;;;1.33;;
13048;SDS011;6591;51.446;5.404;2022-08-02T11:57:15;8.18;;;1.80;;
13048;SDS011;6591;51.446;5.404;2022-08-02T11:59:48;3.00;;;1.30;;
13048;SDS011;6591;51.446;5.404;2022-08-02T12:02:20;1.17;;;1.08;;
13048;SDS011;6591;51.446;5.404;2022-08-02T12:04:59;2.47;;;1.17;;
13048;SDS011;6591;51.446;5.404;2022-08-02T12:07:37;1.20;;;1.10;;
13048;SDS011;6591;51.446;5.404;2022-08-02T12:10:12;1.50;;;1.30;;
13048;SDS011;6591;51.446;5.404;2022-08-02T12:12:50;1.42;;;1.33;;
13048;SDS011;6591;51.446;5.404;2022-08-02T12:18:03;1.10;;;1.00;;
13048;SDS011;6591;51.446;5.404;2022-08-02T12:20:55;1.23;;;1.10;;
13048;SDS011;6591;51.446;5.404;2022-08-02T12:23:24;1.10;;;1.00;;
13048;SDS011;6591;51.446;5.404;2022-08-02T12:26:25;1.00;;;0.88;;
13048;SDS011;6591;51.446;5.404;2022-08-02T12:28:45;0.88;;;0.88;;
13048;SDS011;6591;51.446;5.404;2022-08-02T12:31:12;1.58;;;1.00;;
13048;SDS011;6591;51.446;5.404;2022-08-02T12:33:43;3.05;;;1.00;;
13048;SDS011;6591;51.446;5.404;2022-08-02T12:36:14;1.13;;;0.93;;
13048;SDS011;6591;51.446;5.404;2022-08-02T12:38:51;1.98;;;1.10;;
13048;SDS011;6591;51.446;5.404;2022-08-02T12:41:19;2.17;;;1.13;;
13048;SDS011;6591;51.446;5.404;2022-08-02T12:43:57;0.80;;;0.80;;
13048;SDS011;6591;51.446;5.404;2022-08-02T12:46:25;1.48;;;1.00;;
13048;SDS011;6591;51.446;5.404;2022-08-02T12:48:52;1.10;;;1.05;;
13048;SDS011;6591;51.446;5.404;2022-08-02T12:51:40;1.02;;;0.93;;
13048;SDS011;6591;51.446;5.404;2022-08-02T12:54:25;0.90;;;0.85;;
13048;SDS011;6591;51.446;5.404;2022-08-02T12:57:08;2.50;;;1.30;;
13048;SDS011;6591;51.446;5.404;2022-08-02T12:59:41;1.17;;;1.02;;
13048;SDS011;6591;51.446;5.404;2022-08-02T13:02:16;2.72;;;1.10;;
13048;SDS011;6591;51.446;5.404;2022-08-02T13:04:45;2.83;;;1.33;;
13048;SDS011;6591;51.446;5.404;2022-08-02T13:07:16;3.13;;;1.20;;
13048;SDS011;6591;51.446;5.404;2022-08-02T13:09:44;1.45;;;1.20;;
13048;SDS011;6591;51.446;5.404;2022-08-02T13:12:12;1.35;;;1.20;;
13048;SDS011;6591;51.446;5.404;2022-08-02T13:14:40;1.05;;;0.95;;
13048;SDS011;6591;51.446;5.404;2022-08-02T13:17:08;2.15;;;1.13;;
13048;SDS011;6591;51.446;5.404;2022-08-02T13:19:37;1.02;;;0.93;;
13048;SDS011;6591;51.446;5.404;2022-08-02T13:22:04;1.10;;;1.00;;
13048;SDS011;6591;51.446;5.404;2022-08-02T13:24:33;1.73;;;0.93;;
13048;SDS011;6591;51.446;5.404;2022-08-02T13:27:20;2.08;;;0.93;;
13048;SDS011;6591;51.446;5.404;2022-08-02T13:29:48;0.85;;;0.85;;
13048;SDS011;6591;51.446;5.404;2022-08-02T13:32:17;1.38;;;1.00;;
13048;SDS011;6591;51.446;5.404;2022-08-02T13:34:46;0.95;;;0.82;;
13048;SDS011;6591;51.446;5.404;2022-08-02T13:37:14;1.90;;;1.02;;
13048;SDS011;6591;51.446;5.404;2022-08-02T13:39:42;1.40;;;0.90;;
13048;SDS011;6591;51.446;5.404;2022-08-02T13:42:30;1.25;;;0.88;;
13048;SDS011;6591;51.446;5.404;2022-08-02T13:44:57;1.50;;;0.88;;
13048;SDS011;6591;51.446;5.404;2022-08-02T13:47:24;0.80;;;0.80;;
13048;SDS011;6591;51.446;5.404;2022-08-02T13:50:01;1.83;;;0.90;;
13048;SDS011;6591;51.446;5.404;2022-08-02T13:52:29;1.00;;;0.82;;
13048;SDS011;6591;51.446;5.404;2022-08-02T13:54:56;1.20;;;0.93;;
13048;SDS011;6591;51.446;5.404;2022-08-02T13:57:23;1.20;;;0.77;;
13048;SDS011;6591;51.446;5.404;2022-08-02T13:59:50;0.95;;;0.88;;
13048;SDS011;6591;51.446;5.404;2022-08-02T14:02:24;1.15;;;0.90;;
13048;SDS011;6591;51.446;5.404;2022-08-02T14:04:56;1.05;;;0.90;;
13048;SDS011;6591;51.446;5.404;2022-08-02T14:07:22;1.85;;;0.90;;
13048;SDS011;6591;51.446;5.404;2022-08-02T14:09:49;1.10;;;1.00;;
13048;SDS011;6591;51.446;5.404;2022-08-02T14:12:17;4.22;;;1.27;;
13048;SDS011;6591;51.446;5.404;2022-08-02T14:14:44;1.92;;;1.00;;
13048;SDS011;6591;51.446;5.404;2022-08-02T14:17:11;0.75;;;0.75;;
13048;SDS011;6591;51.446;5.404;2022-08-02T14:19:38;0.88;;;0.88;;
13048;SDS011;6591;51.446;5.404;2022-08-02T14:22:05;4.10;;;0.85;;
13048;SDS011;6591;51.446;5.404;2022-08-02T14:24:38;1.40;;;0.85;;
13048;SDS011;6591;51.446;5.404;2022-08-02T14:27:06;1.02;;;0.93;;
13048;SDS011;6591;51.446;5.404;2022-08-02T14:29:33;1.75;;;1.10;;
13048;SDS011;6591;51.446;5.404;2022-08-02T14:32:01;1.45;;;1.10;;
13048;SDS011;6591;51.446;5.404;2022-08-02T14:34:28;0.82;;;0.80;;
13048;SDS011;6591;51.446;5.404;2022-08-02T14:36:55;1.23;;;1.00;;
13048;SDS011;6591;51.446;5.404;2022-08-02T14:39:22;1.25;;;1.08;;
13048;SDS011;6591;51.446;5.404;2022-08-02T14:41:49;2.47;;;0.90;;
13048;SDS011;6591;51.446;5.404;2022-08-02T14:44:28;0.90;;;0.80;;
13048;SDS011;6591;51.446;5.404;2022-08-02T14:46:56;1.42;;;1.15;;
13048;SDS011;6591;51.446;5.404;2022-08-02T14:49:23;2.15;;;0.95;;
13048;SDS011;6591;51.446;5.404;2022-08-02T14:51:55;1.23;;;0.88;;
13048;SDS011;6591;51.446;5.404;2022-08-02T14:54:26;0.98;;;0.82;;
13048;SDS011;6591;51.446;5.404;2022-08-02T14:56:57;0.90;;;0.77;;
13048;SDS011;6591;51.446;5.404;2022-08-02T14:59:27;0.93;;;0.90;;
13048;SDS011;6591;51.446;5.404;2022-08-02T15:01:55;1.73;;;1.02;;
13048;SDS011;6591;51.446;5.404;2022-08-02T15:04:24;4.10;;;1.20;;
13048;SDS011;6591;51.446;5.404;2022-08-02T15:06:52;1.85;;;1.02;;
13048;SDS011;6591;51.446;5.404;2022-08-02T15:09:19;1.17;;;1.08;;
13048;SDS011;6591;51.446;5.404;2022-08-02T15:11:47;1.10;;;1.00;;
13048;SDS011;6591;51.446;5.404;2022-08-02T15:14:18;1.17;;;0.90;;
13048;SDS011;6591;51.446;5.404;2022-08-02T15:16:54;0.90;;;0.90;;
13048;SDS011;6591;51.446;5.404;2022-08-02T15:19:29;1.13;;;1.02;;
13048;SDS011;6591;51.446;5.404;2022-08-02T15:22:16;1.83;;;0.90;;
13048;SDS011;6591;51.446;5.404;2022-08-02T15:24:45;1.17;;;1.00;;
13048;SDS011;6591;51.446;5.404;2022-08-02T15:27:13;1.85;;;1.02;;
13048;SDS011;6591;51.446;5.404;2022-08-02T15:29:41;1.38;;;1.13;;
13048;SDS011;6591;51.446;5.404;2022-08-02T15:32:10;4.38;;;1.00;;
13048;SDS011;6591;51.446;5.404;2022-08-02T15:34:38;3.65;;;1.00;;
13048;SDS011;6591;51.446;5.404;2022-08-02T15:37:05;1.25;;;1.10;;
13048;SDS011;6591;51.446;5.404;2022-08-02T15:39:32;2.30;;;1.10;;
13048;SDS011;6591;51.446;5.404;2022-08-02T15:41:59;1.83;;;1.10;;
13048;SDS011;6591;51.446;5.404;2022-08-02T15:44:27;1.77;;;1.00;;
13048;SDS011;6591;51.446;5.404;2022-08-02T15:46:54;1.67;;;1.25;;
13048;SDS011;6591;51.446;5.404;2022-08-02T15:49:23;1.35;;;0.90;;
13048;SDS011;6591;51.446;5.404;2022-08-02T15:51:51;1.77;;;1.00;;
13048;SDS011;6591;51.446;5.404;2022-08-02T15:54:19;2.03;;;1.20;;
13048;SDS011;6591;51.446;5.404;2022-08-02T15:56:46;1.30;;;1.00;;
13048;SDS011;6591;51.446;5.404;2022-08-02T15:59:13;1.63;;;1.05;;
13048;SDS011;6591;51.446;5.404;2022-08-02T16:01:41;1.15;;;1.00;;
13048;SDS011;6591;51.446;5.404;2022-08-02T16:04:13;1.30;;;1.00;;
13048;SDS011;6591;51.446;5.404;2022-08-02T16:06:42;1.33;;;1.00;;
13048;SDS011;6591;51.446;5.404;2022-08-02T16:09:10;4.50;;;1.25;;
13048;SDS011;6591;51.446;5.404;2022-08-02T16:11:37;2.90;;;1.27;;
13048;SDS011;6591;51.446;5.404;2022-08-02T16:14:05;1.40;;;0.93;;
13048;SDS011;6591;51.446;5.404;2022-08-02T16:16:33;2.67;;;1.02;;